Time;durP1;ratioP1;P1;durP2;ratioP2;P2;SDS_P1;SDS_P2;PMS_P1;PMS_P2;Temp;Humidity;BMP_temperature;BMP_pressure;BME280_temperature;BME280_humidity;BME280_pressure;Samples;Min_cycle;Max_cycle;Signal;HPM_P1;HPM_P2
2024/02/16 00:00:11;;;;;;;3.47;1.63;;;;;;;10.74;100.00;100941.75;5089796;28;20032;-39
2024/02/16 00:02:37;;;;;;;6.03;2.00;;;;;;;10.79;100.00;100960.00;5089700;28;20024;-40
2024/02/16 00:05:03;;;;;;;;;;;;;;;10.90;100.00;100967.31;5089890;28;20532;-40
2024/02/16 00:07:29;;;;;;;2.65;1.73;;;;;;;10.77;100.00;100959.38;5077972;28;20298;-40
2024/02/16 00:09:54;;;;;;;4.25;2.00;;;;;;;10.69;100.00;100955.13;5076635;28;20062;-40
2024/02/16 00:12:19;;;;;;;4.93;1.87;;;;;;;10.69;100.00;100954.31;5076425;28;20029;-40
2024/02/16 00:14:46;;;;;;;4.37;1.60;;;;;;;10.64;100.00;100951.44;5076512;28;20278;-40
2024/02/16 00:17:11;;;;;;;3.97;2.08;;;;;;;10.56;100.00;100947.19;5075638;28;20476;-40
2024/02/16 00:19:36;;;;;;;2.92;1.55;;;;;;;10.56;100.00;100941.78;5076542;28;20059;-40
2024/02/16 00:22:02;;;;;;;2.83;1.90;;;;;;;10.54;100.00;100943.88;5075934;28;20027;-40
2024/02/16 00:24:27;;;;;;;2.42;1.60;;;;;;;10.46;100.00;100941.50;5076237;28;20028;-40
2024/02/16 00:26:53;;;;;;;3.10;1.70;;;;;;;10.42;100.00;100935.72;5076135;28;20082;-40
2024/02/16 00:29:19;;;;;;;5.53;2.17;;;;;;;10.44;100.00;100947.16;5076070;28;20036;-40
2024/02/16 00:31:44;;;;;;;4.63;1.90;;;;;;;10.41;100.00;100942.19;5075734;28;20099;-40
2024/02/16 00:34:10;;;;;;;3.33;1.52;;;;;;;10.42;100.00;100943.00;5075885;28;20043;-40
2024/02/16 00:36:36;;;;;;;2.88;1.75;;;;;;;10.30;100.00;100934.84;5075926;28;20521;-40
2024/02/16 00:39:03;;;;;;;4.90;1.90;;;;;;;10.31;100.00;100933.78;5076426;28;20063;-40
2024/02/16 00:41:29;;;;;;;4.55;1.80;;;;;;;10.36;100.00;100946.63;5075532;28;20158;-40
2024/02/16 00:43:56;;;;;;;3.90;1.73;;;;;;;10.26;100.00;100936.34;5075815;28;20074;-40
2024/02/16 00:46:22;;;;;;;4.35;1.92;;;;;;;10.23;100.00;100926.75;5075643;28;20054;-41
2024/02/16 00:48:51;;;;;;;5.00;1.98;;;;;;;10.23;100.00;100929.47;5075150;28;20035;-41
2024/02/16 00:51:17;;;;;;;4.32;2.33;;;;;;;10.23;100.00;100929.47;5075891;28;20167;-41
2024/02/16 00:53:42;;;;;;;3.57;1.97;;;;;;;10.26;100.00;100936.34;5075344;28;20464;-41
2024/02/16 00:56:08;;;;;;;2.10;1.70;;;;;;;10.29;100.00;100936.69;5075864;28;20385;-41
2024/02/16 00:58:34;;;;;;;;;;;;;;;10.37;100.00;100934.75;5075931;28;20027;-41
2024/02/16 01:00:59;;;;;;;4.43;2.10;;;;;;;10.27;100.00;100929.88;5074863;28;19995;-41
2024/02/16 01:03:26;;;;;;;2.97;1.90;;;;;;;10.18;100.00;100918.50;5076047;28;20432;-41
2024/02/16 01:05:54;;;;;;;3.55;2.10;;;;;;;10.21;100.00;100931.59;5075589;28;20025;-40
2024/02/16 01:08:19;;;;;;;3.40;1.70;;;;;;;10.16;100.00;100933.31;5074774;28;20111;-41
2024/02/16 01:10:46;;;;;;;3.55;1.88;;;;;;;10.03;100.00;100916.19;5074696;28;20115;-41
2024/02/16 01:13:11;;;;;;;4.00;2.05;;;;;;;10.12;100.00;100927.53;5075759;28;20056;-40
2024/02/16 01:15:37;;;;;;;3.93;2.07;;;;;;;10.04;100.00;100917.00;5074835;28;20083;-40
2024/02/16 01:18:04;;;;;;;4.67;1.90;;;;;;;10.08;100.00;100918.22;5074437;28;20259;-40
2024/02/16 01:20:30;;;;;;;3.33;1.95;;;;;;;10.07;100.00;100920.09;5074820;28;20271;-40
2024/02/16 01:22:56;;;;;;;3.28;1.90;;;;;;;10.07;100.00;100912.00;5074764;28;20058;-40
2024/02/16 01:25:22;;;;;;;4.50;1.90;;;;;;;10.01;100.00;100909.38;5074787;28;20106;-40
2024/02/16 01:27:47;;;;;;;5.20;2.50;;;;;;;10.02;100.00;100911.03;5075249;28;20024;-40
2024/02/16 01:30:14;;;;;;;3.83;1.80;;;;;;;9.85;100.00;100874.84;5074947;28;20448;-41
2024/02/16 01:32:40;;;;;;;4.72;1.75;;;;;;;9.96;100.00;100915.47;5074715;28;20514;-40
2024/02/16 01:35:06;;;;;;;3.20;2.15;;;;;;;10.00;100.00;100905.84;5075177;28;20031;-40
2024/02/16 01:37:31;;;;;;;6.28;2.30;;;;;;;10.00;100.00;100910.41;5074657;28;20044;-40
2024/02/16 01:39:57;;;;;;;2.53;1.70;;;;;;;10.00;100.00;100908.56;5074754;28;20476;-40
2024/02/16 01:42:22;;;;;;;2.63;1.90;;;;;;;9.98;100.00;100907.94;5075068;28;20444;-40
2024/02/16 01:44:47;;;;;;;6.97;2.60;;;;;;;9.99;100.00;100904.19;5074552;28;20052;-40
2024/02/16 01:47:13;;;;;;;5.00;1.80;;;;;;;9.90;100.00;100893.91;5074256;28;20028;-40
2024/02/16 01:49:39;;;;;;;2.83;1.75;;;;;;;9.94;100.00;100908.63;5074771;28;20020;-40
2024/02/16 01:52:05;;;;;;;3.57;2.00;;;;;;;9.88;100.00;100891.44;5074194;28;20229;-41
2024/02/16 01:54:30;;;;;;;3.97;1.73;;;;;;;9.96;100.00;100896.56;5073870;28;20521;-41
2024/02/16 01:56:56;;;;;;;4.70;1.83;;;;;;;9.92;100.00;100889.94;5074967;28;20078;-40
2024/02/16 01:59:22;;;;;;;3.65;1.98;;;;;;;9.89;100.00;100884.97;5074803;28;20266;-40
2024/02/16 02:01:47;;;;;;;4.30;1.80;;;;;;;9.96;100.00;100895.72;5073668;28;20025;-40
2024/02/16 02:04:13;;;;;;;3.67;2.23;;;;;;;9.95;100.00;100900.28;5073937;28;20151;-40
2024/02/16 02:06:38;;;;;;;3.77;1.97;;;;;;;9.89;100.00;100887.69;5073951;28;20032;-41
2024/02/16 02:09:03;;;;;;;3.30;1.80;;;;;;;9.97;100.00;100902.78;5073913;28;20388;-41
2024/02/16 02:11:29;;;;;;;4.23;1.60;;;;;;;9.94;100.00;100890.53;5073656;28;20297;-40
2024/02/16 02:13:54;;;;;;;2.80;1.70;;;;;;;9.96;100.00;100893.03;5073949;28;20459;-41
2024/02/16 02:16:21;;;;;;;3.43;1.80;;;;;;;9.96;100.00;100898.44;5073711;28;20778;-41
2024/02/16 02:18:47;;;;;;;3.30;1.95;;;;;;;9.94;100.00;100887.81;5073528;28;20373;-40
2024/02/16 02:21:14;;;;;;;4.50;2.10;;;;;;;9.93;100.00;100882.66;5073470;28;20070;-40
2024/02/16 02:23:40;;;;;;;2.70;1.80;;;;;;;9.80;100.00;100880.91;5074012;28;20025;-40
2024/02/16 02:26:05;;;;;;;4.25;1.67;;;;;;;9.86;100.00;100892.69;5073696;28;20077;-41
2024/02/16 02:28:30;;;;;;;3.13;2.15;;;;;;;9.88;100.00;100891.44;5073623;28;20067;-40
2024/02/16 02:30:56;;;;;;;4.50;2.37;;;;;;;9.74;100.00;100860.22;5073394;28;20020;-40
2024/02/16 02:33:21;;;;;;;5.43;2.17;;;;;;;9.86;100.00;100880.03;5074403;28;20028;-40
2024/02/16 02:35:47;;;;;;;2.33;1.70;;;;;;;9.80;100.00;100864.72;5073472;28;20119;-41
2024/02/16 02:38:12;;;;;;;3.42;1.85;;;;;;;9.85;100.00;100872.97;5073514;28;20025;-40
2024/02/16 02:40:38;;;;;;;5.70;2.05;;;;;;;9.86;100.00;100880.03;5073480;28;20033;-41
2024/02/16 02:43:03;;;;;;;4.43;1.80;;;;;;;9.82;100.00;100859.94;5073768;28;20538;-41
2024/02/16 02:45:29;;;;;;;3.97;1.80;;;;;;;9.88;100.00;100863.59;5074007;28;20036;-41
2024/02/16 02:47:54;;;;;;;3.95;1.83;;;;;;;9.90;100.00;100869.59;5073967;28;20054;-40
2024/02/16 02:50:20;;;;;;;5.28;2.85;;;;;;;9.83;100.00;100858.06;5074231;28;20036;-41
2024/02/16 02:52:45;;;;;;;3.00;2.00;;;;;;;9.86;100.00;100863.84;5073662;28;20020;-41
2024/02/16 02:55:11;;;;;;;3.50;1.85;;;;;;;9.86;100.00;100863.84;5073756;28;20340;-40
2024/02/16 02:57:36;;;;;;;5.45;2.88;;;;;;;9.85;100.00;100866.75;5073649;28;20040;-41
2024/02/16 03:00:10;;;;;;;2.65;1.70;;;;;;;9.86;100.00;100869.25;5073314;28;20430;-41
2024/02/16 03:02:37;;;;;;;2.88;1.67;;;;;;;9.86;100.00;100858.44;5073597;28;20108;-40
2024/02/16 03:05:02;;;;;;;3.20;1.65;;;;;;;9.86;100.00;100857.59;5073588;28;20025;-40
2024/02/16 03:07:28;;;;;;;8.20;3.42;;;;;;;9.79;100.00;100841.47;5073223;28;20035;-40
2024/02/16 03:09:53;;;;;;;4.73;2.23;;;;;;;9.86;100.00;100846.78;5073223;28;20044;-40
2024/02/16 03:12:18;;;;;;;5.57;2.13;;;;;;;9.87;100.00;100849.28;5072934;28;20040;-40
2024/02/16 03:14:43;;;;;;;3.30;2.20;;;;;;;9.79;100.00;100830.66;5073712;28;20020;-41
2024/02/16 03:17:09;;;;;;;3.53;1.83;;;;;;;9.86;100.00;100852.19;5073443;28;20271;-40
2024/02/16 03:19:34;;;;;;;3.05;1.80;;;;;;;9.88;100.00;100853.63;5073721;28;20032;-40
2024/02/16 03:22:00;;;;;;;3.90;1.90;;;;;;;9.88;100.00;100847.41;5073113;28;20419;-41
2024/02/16 03:24:25;;;;;;;3.73;2.20;;;;;;;9.86;100.00;100847.63;5073106;28;20165;-41
2024/02/16 03:26:50;;;;;;;4.80;2.03;;;;;;;9.87;100.00;100849.28;5073078;28;20274;-40
2024/02/16 03:29:16;;;;;;;3.17;1.93;;;;;;;9.88;100.00;100850.91;5073123;28;20396;-40
2024/02/16 03:31:41;;;;;;;3.97;2.07;;;;;;;9.88;100.00;100840.13;5072995;28;20048;-40
2024/02/16 03:34:06;;;;;;;4.87;2.03;;;;;;;9.86;100.00;100836.84;5073730;28;20263;-40
2024/02/16 03:36:32;;;;;;;5.20;2.20;;;;;;;9.88;100.00;100839.28;5073247;28;20262;-41
2024/02/16 03:38:58;;;;;;;3.08;2.30;;;;;;;9.90;100.00;100843.41;5072982;28;20051;-40
2024/02/16 03:41:23;;;;;;;4.07;2.67;;;;;;;9.92;100.00;100837.78;5073913;28;20028;-40
2024/02/16 03:43:50;;;;;;;4.68;2.83;;;;;;;9.92;100.00;100846.72;5077555;28;20073;-41
2024/02/16 03:46:15;;;;;;;4.57;2.80;;;;;;;9.92;100.00;100849.44;5076300;28;20032;-41
2024/02/16 03:48:41;;;;;;;3.80;2.22;;;;;;;9.94;100.00;100850.00;5076630;28;20044;-41
2024/02/16 03:51:06;;;;;;;5.30;2.45;;;;;;;9.93;100.00;100845.66;5076295;28;20113;-41
2024/02/16 03:53:32;;;;;;;4.60;2.90;;;;;;;9.90;100.00;100854.22;5076580;28;20029;-41
2024/02/16 03:55:58;;;;;;;4.72;2.60;;;;;;;9.95;100.00;100848.94;5076771;28;20476;-41
2024/02/16 03:58:24;;;;;;;3.30;2.75;;;;;;;9.87;100.00;100835.78;5076083;28;20025;-41
2024/02/16 04:00:49;;;;;;;;;;;;;;;10.03;100.00;100845.94;5077045;28;20039;-41
2024/02/16 04:03:15;;;;;;;3.83;2.13;;;;;;;9.96;100.00;100845.22;5076264;28;19913;-40
2024/02/16 04:05:41;;;;;;;3.20;2.38;;;;;;;9.94;100.00;100836.50;5077058;28;20039;-40
2024/02/16 04:08:07;;;;;;;5.32;2.42;;;;;;;9.91;100.00;100834.28;5076807;28;20029;-40
2024/02/16 04:10:35;;;;;;;3.55;2.30;;;;;;;9.89;100.00;100836.34;5076432;28;20025;-40
2024/02/16 04:13:02;;;;;;;3.95;2.20;;;;;;;9.92;100.00;100841.31;5076934;28;20024;-40
2024/02/16 04:15:27;;;;;;;5.43;2.58;;;;;;;9.87;100.00;100838.47;5076522;28;20035;-40
2024/02/16 04:17:52;;;;;;;3.30;2.17;;;;;;;9.90;100.00;100846.09;5076323;28;20024;-40
2024/02/16 04:20:19;;;;;;;3.73;2.10;;;;;;;9.81;100.00;100831.28;5076083;28;20028;-40
2024/02/16 04:22:44;;;;;;;3.72;2.00;;;;;;;9.91;100.00;100846.97;5075606;28;20304;-40
2024/02/16 04:25:10;;;;;;;2.88;2.17;;;;;;;9.90;100.00;100851.50;5075888;28;20025;-40
2024/02/16 04:27:36;;;;;;;4.07;2.65;;;;;;;9.91;100.00;100850.47;5075832;28;20028;-40
2024/02/16 04:30:03;;;;;;;6.78;2.15;;;;;;;9.90;100.00;100856.09;5076105;28;20125;-41
2024/02/16 04:32:29;;;;;;;4.70;2.60;;;;;;;9.87;100.00;100854.69;5074908;28;20413;-40
2024/02/16 04:34:57;;;;;;;2.97;2.07;;;;;;;9.89;100.00;100859.84;5075669;28;20143;-41
2024/02/16 04:37:23;;;;;;;4.15;1.90;;;;;;;9.87;100.00;100851.97;5075896;28;20098;-41
2024/02/16 04:39:49;;;;;;;5.97;2.10;;;;;;;9.85;100.00;100845.13;5075740;28;20024;-42
2024/02/16 04:42:14;;;;;;;2.67;1.75;;;;;;;9.82;100.00;100841.03;5075576;28;20044;-41
2024/02/16 04:44:40;;;;;;;4.15;2.08;;;;;;;9.94;100.00;100860.00;5076409;28;20043;-40
2024/02/16 04:47:05;;;;;;;4.93;1.83;;;;;;;9.93;100.00;100858.34;5075757;28;20112;-41
2024/02/16 04:49:31;;;;;;;4.80;1.90;;;;;;;9.80;100.00;100835.00;5075787;28;20025;-40
2024/02/16 04:51:56;;;;;;;3.42;1.73;;;;;;;9.94;100.00;100855.41;5075689;28;20369;-40
2024/02/16 04:54:22;;;;;;;2.30;1.57;;;;;;;9.93;100.00;100853.78;5075770;28;20129;-40
2024/02/16 04:56:48;;;;;;;3.20;1.80;;;;;;;9.96;100.00;100856.03;5075368;28;20290;-40
2024/02/16 04:59:14;;;;;;;2.22;1.63;;;;;;;9.98;100.00;100856.63;5075567;28;20024;-40
2024/02/16 05:01:39;;;;;;;;;;;;;;;10.05;100.00;100857.38;5076226;28;20033;-40
2024/02/16 05:04:05;;;;;;;2.45;1.80;;;;;;;10.04;100.00;100857.59;5076004;28;20348;-40
2024/02/16 05:06:30;;;;;;;2.25;1.60;;;;;;;10.02;100.00;100855.13;5075075;28;20021;-40
2024/02/16 05:08:59;;;;;;;3.20;1.67;;;;;;;10.07;100.00;100851.72;5075943;28;20029;-40
2024/02/16 05:11:24;;;;;;;4.00;1.73;;;;;;;10.09;100.00;100851.50;5075080;28;20033;-40
2024/02/16 05:13:50;;;;;;;3.03;1.70;;;;;;;10.11;100.00;100852.94;5075284;28;20033;-40
2024/02/16 05:16:16;;;;;;;3.05;1.45;;;;;;;10.05;100.00;100840.31;5074911;28;20040;-40
2024/02/16 05:18:42;;;;;;;;;;;;;;;10.21;100.00;100844.28;5075838;28;20032;-40
2024/02/16 05:21:07;;;;;;;3.55;1.60;;;;;;;10.18;100.00;100844.72;5074894;28;20363;-39
2024/02/16 05:23:32;;;;;;;2.65;1.80;;;;;;;10.20;100.00;100856.13;5074794;28;20029;-40
2024/02/16 05:25:58;;;;;;;2.42;1.55;;;;;;;10.18;100.00;100839.31;5075593;28;20043;-40
2024/02/16 05:28:23;;;;;;;3.45;1.95;;;;;;;10.30;100.00;100845.66;5075203;28;20028;-40
2024/02/16 05:30:48;;;;;;;4.03;1.53;;;;;;;10.30;100.00;100849.19;5074912;28;20037;-40
2024/02/16 05:33:14;;;;;;;2.47;1.63;;;;;;;10.32;100.00;100844.34;5075151;28;20486;-40
2024/02/16 05:35:40;;;;;;;4.40;1.90;;;;;;;10.37;100.00;100843.66;5074652;28;20028;-40
2024/02/16 05:38:20;;;;;;;;;;;;;;;10.45;100.00;100847.94;5074933;28;20032;-40
2024/02/16 05:40:56;;;;;;;2.53;1.90;;;;;;;10.47;100.00;100849.34;5074770;28;20271;-40
2024/02/16 05:43:23;;;;;;;4.03;2.40;;;;;;;10.37;100.00;100826.63;5074425;28;20111;-40
2024/02/16 05:45:49;;;;;;;4.00;2.75;;;;;;;10.47;100.00;100838.53;5074856;28;20032;-40
2024/02/16 05:48:14;;;;;;;4.97;3.10;;;;;;;10.62;100.00;100850.78;5074610;28;20032;-40
2024/02/16 05:50:40;;;;;;;4.72;3.20;;;;;;;10.62;100.00;100854.31;5074793;28;20031;-40
2024/02/16 05:53:06;;;;;;;;;;;;;;;10.69;100.00;100859.66;5075502;28;20032;-40
2024/02/16 05:55:31;;;;;;;3.88;1.83;;;;;;;10.71;100.00;100865.63;5074231;28;20356;-40
2024/02/16 05:57:56;;;;;;;3.83;2.07;;;;;;;10.72;100.00;100860.00;5074157;28;20472;-40
2024/02/16 06:00:21;;;;;;;3.10;1.77;;;;;;;10.79;100.00;100868.84;5073790;28;20108;-40
2024/02/16 06:02:47;;;;;;;4.87;2.70;;;;;;;10.82;100.00;100868.34;5073791;28;20111;-40
2024/02/16 06:05:12;;;;;;;3.30;1.90;;;;;;;10.86;100.00;100876.03;5073745;28;20059;-40
2024/02/16 06:07:38;;;;;;;2.80;1.85;;;;;;;10.82;100.00;100862.13;5074217;28;20032;-40
2024/02/16 06:10:07;;;;;;;3.78;1.83;;;;;;;10.93;100.00;100879.44;5074245;28;20028;-41
2024/02/16 06:12:32;;;;;;;3.78;1.67;;;;;;;10.98;100.00;100882.25;5074380;28;20338;-41
2024/02/16 06:14:58;;;;;;;4.75;1.92;;;;;;;10.97;100.00;100881.44;5073520;28;20047;-39
2024/02/16 06:17:24;;;;;;;4.40;1.90;;;;;;;10.98;100.00;100880.41;5073513;28;20035;-41
2024/02/16 06:19:49;;;;;;;4.13;2.33;;;;;;;11.01;100.00;100877.22;5074100;28;20066;-41
2024/02/16 06:22:15;;;;;;;5.13;2.03;;;;;;;11.05;100.00;100881.13;5074009;28;20017;-41
2024/02/16 06:24:40;;;;;;;4.45;2.15;;;;;;;11.05;100.00;100886.53;5073739;28;20510;-41
2024/02/16 06:27:08;;;;;;;6.28;1.88;;;;;;;11.05;100.00;100883.81;5073945;28;20032;-39
2024/02/16 06:29:33;;;;;;;3.85;2.00;;;;;;;11.00;100.00;100886.41;5073611;28;20028;-41
2024/02/16 06:31:59;;;;;;;6.38;2.08;;;;;;;11.00;100.00;100891.81;5073622;28;20510;-41
2024/02/16 06:34:25;;;;;;;2.38;1.65;;;;;;;11.03;100.00;100890.53;5073774;28;20111;-40
2024/02/16 06:36:50;;;;;;;4.65;2.08;;;;;;;11.05;100.00;100894.66;5072266;28;20030;-40
2024/02/16 06:39:16;;;;;;;4.13;2.08;;;;;;;11.04;100.00;100901.13;5074320;28;20029;-40
2024/02/16 06:41:45;;;;;;;;;;;;;;;11.11;100.00;100901.00;5073624;28;20029;-40
2024/02/16 06:44:11;;;;;;;4.75;1.73;;;;;;;11.14;100.00;100903.25;5073434;28;19951;-40
2024/02/16 06:46:37;;;;;;;3.50;2.03;;;;;;;11.17;100.00;100913.59;5073394;28;20490;-40
2024/02/16 06:49:02;;;;;;;5.07;2.03;;;;;;;11.25;100.00;100905.16;5073178;28;20064;-40
2024/02/16 06:51:28;;;;;;;3.70;2.00;;;;;;;11.31;100.00;100911.50;5073658;28;20048;-40
2024/02/16 06:53:54;;;;;;;3.22;1.80;;;;;;;11.28;100.00;100914.69;5073669;28;20568;-41
2024/02/16 06:56:20;;;;;;;2.80;1.90;;;;;;;11.34;100.00;100916.47;5073700;28;20106;-41
2024/02/16 06:58:46;;;;;;;3.30;1.90;;;;;;;11.31;100.00;100933.16;5073361;28;20064;-41
2024/02/16 07:01:12;;;;;;;;;;;;;;;11.35;100.00;100928.94;5073733;28;20032;-41
2024/02/16 07:03:38;;;;;;;5.97;2.00;;;;;;;11.36;100.00;100938.69;5073056;28;20011;-41
2024/02/16 07:06:04;;;;;;;6.97;2.10;;;;;;;11.40;100.00;100939.88;5073290;28;20036;-41
2024/02/16 07:08:29;;;;;;;;;;;;;;;11.45;100.00;100952.72;5073387;28;20044;-41
2024/02/16 07:10:55;;;;;;;6.38;2.20;;;;;;;11.48;100.00;100946.84;5073385;28;19912;-41
2024/02/16 07:13:22;;;;;;;3.15;1.85;;;;;;;11.48;100.00;100946.84;5073537;28;20455;-40
2024/02/16 07:15:48;;;;;;;3.15;1.63;;;;;;;11.56;100.00;100951.91;5073139;28;20052;-41
2024/02/16 07:18:13;;;;;;;2.73;1.60;;;;;;;11.46;100.00;100940.81;5077328;28;20060;-40
2024/02/16 07:20:38;;;;;;;4.05;1.83;;;;;;;11.56;100.00;100955.44;5076817;28;20041;-40
2024/02/16 07:23:04;;;;;;;2.85;2.00;;;;;;;11.60;100.00;100956.59;5077134;28;20033;-40
2024/02/16 07:25:29;;;;;;;3.50;2.07;;;;;;;11.59;100.00;100941.44;5076771;28;20046;-40
2024/02/16 07:27:54;;;;;;;4.33;2.33;;;;;;;11.64;100.00;100954.25;5077318;28;20283;-40
2024/02/16 07:30:20;;;;;;;2.80;2.10;;;;;;;11.67;100.00;100964.63;5077326;28;20028;-40
2024/02/16 07:32:52;;;;;;;4.70;2.22;;;;;;;11.73;100.00;100977.25;5077145;28;20271;-40
2024/02/16 07:35:18;;;;;;;4.78;1.70;;;;;;;11.72;100.00;100972.06;5076625;28;20029;-41
2024/02/16 07:37:43;;;;;;;4.20;2.15;;;;;;;11.74;100.00;100978.06;5077145;28;20484;-41
2024/02/16 07:40:09;;;;;;;4.20;2.00;;;;;;;11.73;100.00;100985.38;5076752;28;20025;-41
2024/02/16 07:42:39;;;;;;;5.28;2.00;;;;;;;11.71;100.00;100986.66;5075977;28;20029;-41
2024/02/16 07:45:06;;;;;;;4.90;2.05;;;;;;;11.77;100.00;100988.44;5076367;28;20074;-41
2024/02/16 07:47:32;;;;;;;4.93;2.22;;;;;;;11.82;100.00;100991.28;5076280;28;20025;-41
2024/02/16 07:49:57;;;;;;;;;;;;;;;11.84;100.00;100998.13;5077204;28;20149;-40
2024/02/16 07:52:22;;;;;;;4.68;1.98;;;;;;;11.72;100.00;100972.06;5075912;28;20394;-41
2024/02/16 07:54:48;;;;;;;5.68;2.35;;;;;;;11.87;100.00;100987.88;5076082;28;20052;-40
2024/02/16 07:57:14;;;;;;;6.22;2.30;;;;;;;11.88;100.00;100987.63;5076484;28;20468;-40
2024/02/16 07:59:40;;;;;;;3.85;1.88;;;;;;;11.86;100.00;100987.06;5076052;28;20044;-41
2024/02/16 08:02:07;;;;;;;4.10;2.10;;;;;;;11.90;100.00;100993.63;5076492;28;20470;-40
2024/02/16 08:04:32;;;;;;;3.97;2.28;;;;;;;11.95;100.00;100993.75;5076187;28;20090;-40
2024/02/16 08:06:57;;;;;;;3.83;1.90;;;;;;;11.93;100.00;100987.75;5075893;28;20024;-40
2024/02/16 08:09:23;;;;;;;6.10;2.55;;;;;;;11.98;100.00;100985.16;5075952;28;20476;-41
2024/02/16 08:11:48;;;;;;;4.15;2.42;;;;;;;12.00;100.00;100998.47;5075522;28;20176;-41
2024/02/16 08:14:14;;;;;;;4.83;2.27;;;;;;;11.99;100.00;101004.94;5076152;28;20035;-41
2024/02/16 08:16:39;;;;;;;5.55;2.33;;;;;;;11.97;100.00;101005.19;5076348;28;20029;-40
2024/02/16 08:19:05;;;;;;;3.63;2.00;;;;;;;11.98;100.00;101008.72;5075407;28;20029;-40
2024/02/16 08:21:30;;;;;;;4.30;2.38;;;;;;;11.96;100.00;101008.97;5075592;28;20029;-40
2024/02/16 08:23:56;;;;;;;5.72;2.00;;;;;;;11.93;100.00;101012.13;5075378;28;20471;-41
2024/02/16 08:26:21;;;;;;;5.07;2.33;;;;;;;11.85;100.00;101016.00;5075651;28;20081;-41
2024/02/16 08:28:47;;;;;;;4.67;2.57;;;;;;;11.89;100.00;101029.09;5075266;28;20033;-40
2024/02/16 08:31:17;;;;;;;3.40;2.03;;;;;;;11.89;100.00;101024.50;5075637;28;20288;-40
2024/02/16 08:33:44;;;;;;;6.53;2.55;;;;;;;11.90;100.00;101031.56;5076468;28;20052;-40
2024/02/16 08:36:09;;;;;;;6.82;2.83;;;;;;;11.87;100.00;101031.22;5075469;28;20028;-40
2024/02/16 08:38:36;;;;;;;4.47;2.30;;;;;;;11.83;100.00;101039.81;5075898;28;20365;-40
2024/02/16 08:41:03;;;;;;;4.18;2.40;;;;;;;11.83;100.00;101056.09;5075398;28;20274;-41
2024/02/16 08:43:28;;;;;;;4.88;2.40;;;;;;;11.80;100.00;101061.09;5075750;28;20098;-40
2024/02/16 08:45:54;;;;;;;5.40;3.17;;;;;;;11.78;100.00;101053.22;5076168;28;20064;-41
2024/02/16 08:48:20;;;;;;;4.35;2.42;;;;;;;11.81;100.00;101060.06;5075533;28;20036;-40
2024/02/16 08:50:45;;;;;;;8.30;2.67;;;;;;;11.80;100.00;101061.91;5075199;28;20035;-40
2024/02/16 08:53:10;;;;;;;5.05;2.70;;;;;;;11.77;100.00;101054.28;5075526;28;20029;-40
2024/02/16 08:55:36;;;;;;;7.00;2.45;;;;;;;11.79;100.00;101059.47;5075181;28;20032;-39
2024/02/16 08:58:01;;;;;;;3.45;2.35;;;;;;;11.85;100.00;101063.97;5075707;28;20061;-39
2024/02/16 09:00:28;;;;;;;5.22;2.55;;;;;;;11.86;100.00;101073.78;5075711;28;20392;-40
2024/02/16 09:02:53;;;;;;;7.47;3.40;;;;;;;11.84;100.00;101059.63;5075261;28;20036;-40
2024/02/16 09:05:19;;;;;;;5.43;2.28;;;;;;;11.94;100.00;101076.13;5076109;28;20069;-40
2024/02/16 09:07:47;;;;;;;5.18;2.40;;;;;;;11.97;100.00;101074.84;5075204;28;20062;-40
2024/02/16 09:10:14;;;;;;;5.97;2.47;;;;;;;12.02;100.00;101083.91;5075474;28;20142;-40
2024/02/16 09:12:39;;;;;;;3.92;2.58;;;;;;;12.01;100.00;101084.97;5075541;28;20028;-40
2024/02/16 09:15:05;;;;;;;5.82;2.60;;;;;;;12.06;100.00;101090.50;5074941;28;20128;-40
2024/02/16 09:17:31;;;;;;;4.68;2.67;;;;;;;12.11;100.00;101098.75;5074882;28;20464;-40
2024/02/16 09:19:57;;;;;;;5.95;2.63;;;;;;;12.12;100.00;101096.88;5075232;28;20075;-40
2024/02/16 09:22:22;;;;;;;6.50;2.90;;;;;;;12.19;100.00;101110.31;5075412;28;20407;-40
2024/02/16 09:24:47;;;;;;;6.65;3.20;;;;;;;12.25;100.00;101120.19;5074840;28;20035;-40
2024/02/16 09:27:13;;;;;;;8.35;3.28;;;;;;;12.26;100.00;101119.16;5074513;28;20025;-40
2024/02/16 09:29:39;;;;;;;7.57;2.90;;;;;;;12.35;100.00;101120.47;5074757;28;20496;-40
2024/02/16 09:32:05;;;;;;;;;;;;;;;12.39;100.00;101121.63;5074712;28;20034;-40
2024/02/16 09:34:30;;;;;;;4.05;2.88;;;;;;;12.38;100.00;101123.50;5075354;28;19994;-40
2024/02/16 09:36:55;;;;;;;5.72;3.28;;;;;;;12.41;100.00;101118.69;5074827;28;20020;-40
2024/02/16 09:39:21;;;;;;;5.37;2.97;;;;;;;12.47;100.00;101126.69;5073728;28;20033;-40
2024/02/16 09:41:50;;;;;;;5.83;3.27;;;;;;;12.51;100.00;101132.47;5074507;28;20025;-40
2024/02/16 09:44:16;;;;;;;4.75;3.00;;;;;;;12.55;100.00;101139.91;5074419;28;20323;-40
2024/02/16 09:46:42;;;;;;;11.02;3.65;;;;;;;12.59;100.00;101142.97;5074397;28;20085;-40
2024/02/16 09:49:07;;;;;;;6.90;3.22;;;;;;;12.59;100.00;101142.97;5074807;28;20029;-40
2024/02/16 09:51:36;;;;;;;9.55;3.42;;;;;;;12.60;100.00;101145.47;5073901;28;20039;-40
2024/02/16 09:54:03;;;;;;;7.18;3.78;;;;;;;12.59;100.00;101154.66;5074179;28;20025;-40
2024/02/16 09:56:28;;;;;;;8.75;3.53;;;;;;;12.61;100.00;101152.53;5074198;28;20388;-44
2024/02/16 09:58:57;;;;;;;9.77;3.10;;;;;;;12.62;100.00;101167.72;5074183;28;20040;-40
2024/02/16 10:01:23;;;;;;;7.20;3.78;;;;;;;12.67;100.00;101168.91;5074111;28;20107;-40
2024/02/16 10:03:50;;;;;;;9.63;3.70;;;;;;;12.70;100.00;101161.13;5074038;28;20506;-41
2024/02/16 10:06:17;;;;;;;6.50;2.72;;;;;;;12.74;100.00;101167.75;5073788;28;20043;-41
2024/02/16 10:08:56;;;;;;;4.80;3.70;;;;;;;12.77;100.00;101177.28;5073685;28;20036;-40
2024/02/16 10:11:24;;;;;;;6.47;3.25;;;;;;;12.67;100.00;101164.31;5073988;28;20024;-41
2024/02/16 10:14:04;;;;;;;5.13;2.92;;;;;;;12.76;100.00;101181.88;5074401;28;20025;-41
2024/02/16 10:16:30;;;;;;;6.40;3.63;;;;;;;12.72;100.00;101185.31;5074568;28;20399;-44
2024/02/16 10:18:57;;;;;;;7.22;3.47;;;;;;;12.73;100.00;101187.78;5073911;28;20028;-41
2024/02/16 10:21:27;;;;;;;7.97;3.13;;;;;;;12.72;100.00;101194.28;5073459;28;20032;-40
2024/02/16 10:24:10;;;;;;;6.50;3.53;;;;;;;12.73;100.00;101200.53;5074304;28;20024;-40
2024/02/16 10:26:39;;;;;;;5.93;3.22;;;;;;;12.70;100.00;101203.72;5073757;28;20020;-40
2024/02/16 10:29:08;;;;;;;8.13;3.38;;;;;;;12.58;100.00;101193.69;5073724;28;20028;-40
2024/02/16 10:31:34;;;;;;;5.93;3.35;;;;;;;12.63;100.00;101214.69;5073239;28;20031;-40
2024/02/16 10:34:05;;;;;;;;;;;;;;;12.67;100.00;101218.56;5074296;28;20024;-40
2024/02/16 10:36:31;;;;;;;6.88;3.17;;;;;;;12.56;100.00;101214.81;5073530;28;19912;-40
2024/02/16 10:38:57;;;;;;;7.22;3.40;;;;;;;12.49;100.00;101219.53;5073566;28;20070;-40
2024/02/16 10:41:28;;;;;;;9.30;3.30;;;;;;;12.48;100.00;101222.47;5073503;28;20017;-40
2024/02/16 10:43:55;;;;;;;8.90;3.60;;;;;;;12.50;100.00;101240.16;5073237;28;20071;-40
2024/02/16 10:46:20;;;;;;;5.30;3.42;;;;;;;12.49;100.00;101238.53;5073488;28;20114;-40
2024/02/16 10:48:46;;;;;;;7.45;2.92;;;;;;;12.47;100.00;101243.34;5073566;28;20064;-40
2024/02/16 10:51:14;;;;;;;5.32;2.97;;;;;;;12.48;100.00;101255.00;5073231;28;20030;-40
2024/02/16 10:53:41;;;;;;;9.38;3.47;;;;;;;12.46;100.00;101251.72;5074189;28;20433;-40
2024/02/16 10:56:07;;;;;;;5.30;3.10;;;;;;;12.44;100.00;101249.22;5073505;28;20063;-40
2024/02/16 10:58:33;;;;;;;4.43;2.90;;;;;;;12.44;100.00;101260.06;5073956;28;20033;-40
2024/02/16 11:01:08;;;;;;;5.57;3.42;;;;;;;12.43;100.00;101263.84;5073249;28;20023;-39
2024/02/16 11:03:33;;;;;;;5.95;3.90;;;;;;;12.42;100.00;101264.91;5073540;28;20029;-40
2024/02/16 11:05:59;;;;;;;8.93;3.40;;;;;;;12.34;100.00;101263.34;5072931;28;20036;-39
2024/02/16 11:08:28;;;;;;;5.95;3.58;;;;;;;12.37;100.00;101276.44;5072948;28;20025;-40
2024/02/16 11:10:57;;;;;;;6.00;4.15;;;;;;;12.30;100.00;101261.34;5073468;28;20024;-40
2024/02/16 11:13:27;;;;;;;7.93;4.50;;;;;;;12.33;100.00;101279.84;5073234;28;20078;-40
2024/02/16 11:16:04;;;;;;;7.45;4.47;;;;;;;12.18;100.00;101279.47;5072765;28;20432;-39